sensor_id;sensor_type;location;lat;lon;timestamp;temperature;humidity
77829;DHT22;67019;51.034;3.728;2024-02-16T00:00:12;13.20;99.90
77829;DHT22;67019;51.034;3.728;2024-02-16T00:02:42;13.20;99.90
77829;DHT22;67019;51.034;3.728;2024-02-16T00:05:11;13.10;99.90
77829;DHT22;67019;51.034;3.728;2024-02-16T00:07:39;13.00;99.90
77829;DHT22;67019;51.034;3.728;2024-02-16T00:10:08;13.10;99.90
77829;DHT22;67019;51.034;3.728;2024-02-16T00:12:36;13.50;99.90
77829;DHT22;67019;51.034;3.728;2024-02-16T00:15:04;13.40;99.90
77829;DHT22;67019;51.034;3.728;2024-02-16T00:17:31;13.30;99.90
77829;DHT22;67019;51.034;3.728;2024-02-16T00:20:00;13.60;99.90
77829;DHT22;67019;51.034;3.728;2024-02-16T00:22:28;13.60;99.90
77829;DHT22;67019;51.034;3.728;2024-02-16T00:24:55;13.70;99.90
77829;DHT22;67019;51.034;3.728;2024-02-16T00:27:23;13.80;99.90
77829;DHT22;67019;51.034;3.728;2024-02-16T00:29:50;13.70;99.90
77829;DHT22;67019;51.034;3.728;2024-02-16T00:32:18;13.30;99.90
77829;DHT22;67019;51.034;3.728;2024-02-16T00:34:47;13.60;99.90
77829;DHT22;67019;51.034;3.728;2024-02-16T00:37:15;13.60;99.90
77829;DHT22;67019;51.034;3.728;2024-02-16T00:39:42;13.50;99.90
77829;DHT22;67019;51.034;3.728;2024-02-16T00:42:10;13.40;99.90
77829;DHT22;67019;51.034;3.728;2024-02-16T00:44:38;13.60;99.90
77829;DHT22;67019;51.034;3.728;2024-02-16T00:47:05;13.80;99.90
77829;DHT22;67019;51.034;3.728;2024-02-16T00:49:33;13.60;99.90
77829;DHT22;67019;51.034;3.728;2024-02-16T00:52:01;13.70;99.90
77829;DHT22;67019;51.034;3.728;2024-02-16T00:54:28;13.60;99.90
77829;DHT22;67019;51.034;3.728;2024-02-16T00:56:56;13.60;99.90
77829;DHT22;67019;51.034;3.728;2024-02-16T00:59:25;13.50;99.90
77829;DHT22;67019;51.034;3.728;2024-02-16T01:01:53;13.50;99.90
77829;DHT22;67019;51.034;3.728;2024-02-16T01:04:20;13.50;99.90
77829;DHT22;67019;51.034;3.728;2024-02-16T01:06:49;13.60;99.90
77829;DHT22;67019;51.034;3.728;2024-02-16T01:09:17;13.60;99.90
77829;DHT22;67019;51.034;3.728;2024-02-16T01:11:44;13.70;99.90
77829;DHT22;67019;51.034;3.728;2024-02-16T01:14:12;13.70;99.90
77829;DHT22;67019;51.034;3.728;2024-02-16T01:16:40;13.40;99.90
77829;DHT22;67019;51.034;3.728;2024-02-16T01:19:07;13.50;99.90
77829;DHT22;67019;51.034;3.728;2024-02-16T01:21:36;13.50;99.90
77829;DHT22;67019;51.034;3.728;2024-02-16T01:24:04;13.50;99.90
77829;DHT22;67019;51.034;3.728;2024-02-16T01:26:32;13.40;99.90
77829;DHT22;67019;51.034;3.728;2024-02-16T01:29:00;13.40;99.90
77829;DHT22;67019;51.034;3.728;2024-02-16T01:31:28;13.40;99.90
77829;DHT22;67019;51.034;3.728;2024-02-16T01:33:56;13.30;99.90
77829;DHT22;67019;51.034;3.728;2024-02-16T01:36:23;13.30;99.90
77829;DHT22;67019;51.034;3.728;2024-02-16T01:38:51;13.40;99.90
77829;DHT22;67019;51.034;3.728;2024-02-16T01:41:18;13.40;99.90
77829;DHT22;67019;51.034;3.728;2024-02-16T01:43:46;13.40;99.90
77829;DHT22;67019;51.034;3.728;2024-02-16T01:46:14;13.40;99.90
77829;DHT22;67019;51.034;3.728;2024-02-16T01:48:41;13.20;99.90
77829;DHT22;67019;51.034;3.728;2024-02-16T01:51:10;13.30;99.90
77829;DHT22;67019;51.034;3.728;2024-02-16T01:53:39;13.30;99.90
77829;DHT22;67019;51.034;3.728;2024-02-16T01:56:07;13.40;99.90
77829;DHT22;67019;51.034;3.728;2024-02-16T01:58:35;13.40;99.90
77829;DHT22;67019;51.034;3.728;2024-02-16T02:01:02;13.20;99.90
77829;DHT22;67019;51.034;3.728;2024-02-16T02:03:30;13.20;99.90
77829;DHT22;67019;51.034;3.728;2024-02-16T02:05:58;13.20;99.90
77829;DHT22;67019;51.034;3.728;2024-02-16T02:08:26;13.00;99.90
77829;DHT22;67019;51.034;3.728;2024-02-16T02:10:53;13.20;99.90
77829;DHT22;67019;51.034;3.728;2024-02-16T02:13:21;13.20;99.90
77829;DHT22;67019;51.034;3.728;2024-02-16T02:15:49;13.20;99.90
77829;DHT22;67019;51.034;3.728;2024-02-16T02:18:18;13.10;99.90
77829;DHT22;67019;51.034;3.728;2024-02-16T02:20:45;13.10;99.90
77829;DHT22;67019;51.034;3.728;2024-02-16T02:23:13;13.20;99.90
77829;DHT22;67019;51.034;3.728;2024-02-16T02:25:40;13.20;99.90
77829;DHT22;67019;51.034;3.728;2024-02-16T02:28:12;13.10;99.90
77829;DHT22;67019;51.034;3.728;2024-02-16T02:30:40;13.10;99.90
77829;DHT22;67019;51.034;3.728;2024-02-16T02:33:07;13.20;99.90
77829;DHT22;67019;51.034;3.728;2024-02-16T02:35:36;13.30;99.90
77829;DHT22;67019;51.034;3.728;2024-02-16T02:38:04;13.10;99.90
77829;DHT22;67019;51.034;3.728;2024-02-16T02:40:32;13.10;99.90
77829;DHT22;67019;51.034;3.728;2024-02-16T02:42:59;13.20;99.90
77829;DHT22;67019;51.034;3.728;2024-02-16T02:45:27;13.30;99.90
77829;DHT22;67019;51.034;3.728;2024-02-16T02:47:56;13.80;99.90
77829;DHT22;67019;51.034;3.728;2024-02-16T02:50:23;13.40;99.90
77829;DHT22;67019;51.034;3.728;2024-02-16T02:52:51;13.40;99.90
77829;DHT22;67019;51.034;3.728;2024-02-16T02:55:19;13.30;99.90
77829;DHT22;67019;51.034;3.728;2024-02-16T02:57:46;13.40;99.90
77829;DHT22;67019;51.034;3.728;2024-02-16T03:00:14;13.50;99.90
77829;DHT22;67019;51.034;3.728;2024-02-16T03:02:42;13.40;99.90
77829;DHT22;67019;51.034;3.728;2024-02-16T03:05:11;13.30;99.90
77829;DHT22;67019;51.034;3.728;2024-02-16T03:07:38;13.40;99.90
77829;DHT22;67019;51.034;3.728;2024-02-16T03:10:07;13.40;99.90
77829;DHT22;67019;51.034;3.728;2024-02-16T03:12:38;13.10;99.90
77829;DHT22;67019;51.034;3.728;2024-02-16T03:15:06;13.00;99.90
77829;DHT22;67019;51.034;3.728;2024-02-16T03:17:33;13.30;99.90
77829;DHT22;67019;51.034;3.728;2024-02-16T03:20:01;13.40;99.90
77829;DHT22;67019;51.034;3.728;2024-02-16T03:22:29;13.20;99.90
77829;DHT22;67019;51.034;3.728;2024-02-16T03:24:57;13.30;99.90
77829;DHT22;67019;51.034;3.728;2024-02-16T03:27:24;13.60;99.90
77829;DHT22;67019;51.034;3.728;2024-02-16T03:29:53;13.50;99.90
77829;DHT22;67019;51.034;3.728;2024-02-16T03:32:21;13.40;99.90
77829;DHT22;67019;51.034;3.728;2024-02-16T03:34:48;13.40;99.90
77829;DHT22;67019;51.034;3.728;2024-02-16T03:37:16;13.50;99.90
77829;DHT22;67019;51.034;3.728;2024-02-16T03:39:43;13.50;99.90
77829;DHT22;67019;51.034;3.728;2024-02-16T03:42:13;13.70;99.90
77829;DHT22;67019;51.034;3.728;2024-02-16T03:44:40;13.50;99.90
77829;DHT22;67019;51.034;3.728;2024-02-16T03:47:08;13.60;99.90
77829;DHT22;67019;51.034;3.728;2024-02-16T03:49:37;13.50;99.90
77829;DHT22;67019;51.034;3.728;2024-02-16T03:52:05;13.60;99.90
77829;DHT22;67019;51.034;3.728;2024-02-16T03:54:32;13.70;99.90
77829;DHT22;67019;51.034;3.728;2024-02-16T03:57:00;13.60;99.90
77829;DHT22;67019;51.034;3.728;2024-02-16T03:59:30;13.60;99.90
77829;DHT22;67019;51.034;3.728;2024-02-16T04:01:57;13.40;99.90
77829;DHT22;67019;51.034;3.728;2024-02-16T04:04:25;13.40;99.90
77829;DHT22;67019;51.034;3.728;2024-02-16T04:06:53;13.40;99.90
77829;DHT22;67019;51.034;3.728;2024-02-16T04:09:20;13.30;99.90
77829;DHT22;67019;51.034;3.728;2024-02-16T04:11:48;13.30;99.90
77829;DHT22;67019;51.034;3.728;2024-02-16T04:14:16;13.30;99.90
77829;DHT22;67019;51.034;3.728;2024-02-16T04:16:46;13.30;99.90
77829;DHT22;67019;51.034;3.728;2024-02-16T04:19:13;13.30;99.90
77829;DHT22;67019;51.034;3.728;2024-02-16T04:21:41;13.50;99.90
77829;DHT22;67019;51.034;3.728;2024-02-16T04:24:09;13.40;99.90
77829;DHT22;67019;51.034;3.728;2024-02-16T04:26:37;13.50;99.90
77829;DHT22;67019;51.034;3.728;2024-02-16T04:29:04;13.50;99.90
77829;DHT22;67019;51.034;3.728;2024-02-16T04:31:32;13.50;99.90
77829;DHT22;67019;51.034;3.728;2024-02-16T04:34:00;13.70;99.90
77829;DHT22;67019;51.034;3.728;2024-02-16T04:36:28;13.50;99.90
77829;DHT22;67019;51.034;3.728;2024-02-16T04:38:56;13.30;99.90
77829;DHT22;67019;51.034;3.728;2024-02-16T04:41:24;13.20;99.90
77829;DHT22;67019;51.034;3.728;2024-02-16T04:43:51;13.00;99.90
77829;DHT22;67019;51.034;3.728;2024-02-16T04:46:20;13.20;99.90
77829;DHT22;67019;51.034;3.728;2024-02-16T04:48:48;13.20;99.90
77829;DHT22;67019;51.034;3.728;2024-02-16T04:51:15;13.20;99.90
77829;DHT22;67019;51.034;3.728;2024-02-16T04:53:43;13.20;99.90
77829;DHT22;67019;51.034;3.728;2024-02-16T04:56:11;13.40;99.90
77829;DHT22;67019;51.034;3.728;2024-02-16T04:58:42;13.20;99.90
77829;DHT22;67019;51.034;3.728;2024-02-16T05:01:09;13.20;99.90
77829;DHT22;67019;51.034;3.728;2024-02-16T05:03:37;13.30;99.90
77829;DHT22;67019;51.034;3.728;2024-02-16T05:06:07;13.30;99.90
77829;DHT22;67019;51.034;3.728;2024-02-16T05:08:34;13.40;99.90
77829;DHT22;67019;51.034;3.728;2024-02-16T05:11:02;13.40;99.90
77829;DHT22;67019;51.034;3.728;2024-02-16T05:13:29;13.30;99.90
77829;DHT22;67019;51.034;3.728;2024-02-16T05:15:57;13.10;99.90
77829;DHT22;67019;51.034;3.728;2024-02-16T05:18:25;13.10;99.90
77829;DHT22;67019;51.034;3.728;2024-02-16T05:20:52;13.10;99.90
77829;DHT22;67019;51.034;3.728;2024-02-16T05:23:20;13.10;99.90
77829;DHT22;67019;51.034;3.728;2024-02-16T05:25:47;13.10;99.90
77829;DHT22;67019;51.034;3.728;2024-02-16T05:28:15;13.10;99.90
77829;DHT22;67019;51.034;3.728;2024-02-16T05:30:43;13.00;99.90
77829;DHT22;67019;51.034;3.728;2024-02-16T05:33:11;13.10;99.90
77829;DHT22;67019;51.034;3.728;2024-02-16T05:35:40;13.00;99.90
77829;DHT22;67019;51.034;3.728;2024-02-16T05:38:09;13.00;99.90
77829;DHT22;67019;51.034;3.728;2024-02-16T05:40:39;12.90;99.90
77829;DHT22;67019;51.034;3.728;2024-02-16T05:43:12;12.90;99.90
77829;DHT22;67019;51.034;3.728;2024-02-16T05:45:40;13.00;99.90
77829;DHT22;67019;51.034;3.728;2024-02-16T05:48:08;13.00;99.90
77829;DHT22;67019;51.034;3.728;2024-02-16T05:50:36;13.00;99.90
77829;DHT22;67019;51.034;3.728;2024-02-16T05:53:04;13.00;99.90
77829;DHT22;67019;51.034;3.728;2024-02-16T05:55:32;13.10;99.90
77829;DHT22;67019;51.034;3.728;2024-02-16T05:58:00;13.00;99.90
77829;DHT22;67019;51.034;3.728;2024-02-16T06:00:28;13.00;99.90
77829;DHT22;67019;51.034;3.728;2024-02-16T06:02:55;12.90;99.90
77829;DHT22;67019;51.034;3.728;2024-02-16T06:05:23;12.90;99.90
77829;DHT22;67019;51.034;3.728;2024-02-16T06:07:51;12.80;99.90
77829;DHT22;67019;51.034;3.728;2024-02-16T06:10:18;12.80;99.90
77829;DHT22;67019;51.034;3.728;2024-02-16T06:12:46;12.90;99.90
77829;DHT22;67019;51.034;3.728;2024-02-16T06:15:14;12.80;99.90
77829;DHT22;67019;51.034;3.728;2024-02-16T06:17:41;13.10;99.90
77829;DHT22;67019;51.034;3.728;2024-02-16T06:20:09;13.10;99.90
77829;DHT22;67019;51.034;3.728;2024-02-16T06:22:37;13.20;99.90
77829;DHT22;67019;51.034;3.728;2024-02-16T06:25:05;13.00;99.90
77829;DHT22;67019;51.034;3.728;2024-02-16T06:27:33;13.00;99.90
77829;DHT22;67019;51.034;3.728;2024-02-16T06:30:00;13.00;99.90
77829;DHT22;67019;51.034;3.728;2024-02-16T06:32:28;13.00;99.90
77829;DHT22;67019;51.034;3.728;2024-02-16T06:34:56;12.90;99.90
77829;DHT22;67019;51.034;3.728;2024-02-16T06:37:25;13.00;99.90
77829;DHT22;67019;51.034;3.728;2024-02-16T06:39:53;12.90;99.90
77829;DHT22;67019;51.034;3.728;2024-02-16T06:42:20;12.90;99.90
77829;DHT22;67019;51.034;3.728;2024-02-16T06:44:48;13.10;99.90
77829;DHT22;67019;51.034;3.728;2024-02-16T06:47:16;12.90;99.90
77829;DHT22;67019;51.034;3.728;2024-02-16T06:49:43;12.80;99.90
77829;DHT22;67019;51.034;3.728;2024-02-16T06:52:13;12.80;99.90
77829;DHT22;67019;51.034;3.728;2024-02-16T06:54:41;12.90;99.90
77829;DHT22;67019;51.034;3.728;2024-02-16T06:57:08;12.80;99.90
77829;DHT22;67019;51.034;3.728;2024-02-16T06:59:36;12.80;99.90
77829;DHT22;67019;51.034;3.728;2024-02-16T07:02:05;12.80;99.90
77829;DHT22;67019;51.034;3.728;2024-02-16T07:04:36;12.80;99.90
77829;DHT22;67019;51.034;3.728;2024-02-16T07:07:08;12.80;99.90
77829;DHT22;67019;51.034;3.728;2024-02-16T07:09:33;12.80;99.90
77829;DHT22;67019;51.034;3.728;2024-02-16T07:12:00;12.80;99.90
77829;DHT22;67019;51.034;3.728;2024-02-16T07:14:29;12.80;99.90
77829;DHT22;67019;51.034;3.728;2024-02-16T07:16:57;12.70;99.90
77829;DHT22;67019;51.034;3.728;2024-02-16T07:19:24;12.80;99.90
77829;DHT22;67019;51.034;3.728;2024-02-16T07:21:52;12.70;99.90
77829;DHT22;67019;51.034;3.728;2024-02-16T07:24:19;13.20;99.90
77829;DHT22;67019;51.034;3.728;2024-02-16T07:26:47;12.80;99.90
77829;DHT22;67019;51.034;3.728;2024-02-16T07:29:15;12.70;99.90
77829;DHT22;67019;51.034;3.728;2024-02-16T07:31:43;12.70;99.90
77829;DHT22;67019;51.034;3.728;2024-02-16T07:34:10;12.70;99.90
77829;DHT22;67019;51.034;3.728;2024-02-16T07:36:38;12.90;99.90
77829;DHT22;67019;51.034;3.728;2024-02-16T07:39:06;12.80;99.90
77829;DHT22;67019;51.034;3.728;2024-02-16T07:41:34;12.70;99.90
77829;DHT22;67019;51.034;3.728;2024-02-16T07:44:01;12.80;99.90
77829;DHT22;67019;51.034;3.728;2024-02-16T07:46:29;13.00;99.90
77829;DHT22;67019;51.034;3.728;2024-02-16T07:48:57;12.90;99.90
77829;DHT22;67019;51.034;3.728;2024-02-16T07:51:24;13.10;99.90
77829;DHT22;67019;51.034;3.728;2024-02-16T07:53:52;13.00;99.90
77829;DHT22;67019;51.034;3.728;2024-02-16T07:56:19;12.90;99.90
77829;DHT22;67019;51.034;3.728;2024-02-16T07:58:47;12.80;99.90
77829;DHT22;67019;51.034;3.728;2024-02-16T08:01:15;12.80;99.90
77829;DHT22;67019;51.034;3.728;2024-02-16T08:03:43;12.80;99.90
77829;DHT22;67019;51.034;3.728;2024-02-16T08:06:10;12.90;99.90
77829;DHT22;67019;51.034;3.728;2024-02-16T08:08:39;12.80;99.90
77829;DHT22;67019;51.034;3.728;2024-02-16T08:11:09;13.00;99.90
77829;DHT22;67019;51.034;3.728;2024-02-16T08:13:36;12.90;99.90
77829;DHT22;67019;51.034;3.728;2024-02-16T08:16:04;12.90;99.90
77829;DHT22;67019;51.034;3.728;2024-02-16T08:18:33;12.90;99.90
77829;DHT22;67019;51.034;3.728;2024-02-16T08:21:01;12.90;99.90
77829;DHT22;67019;51.034;3.728;2024-02-16T08:23:29;12.80;99.90
77829;DHT22;67019;51.034;3.728;2024-02-16T08:25:57;12.80;99.90
77829;DHT22;67019;51.034;3.728;2024-02-16T08:28:25;12.70;99.90
77829;DHT22;67019;51.034;3.728;2024-02-16T08:30:52;12.70;99.90
77829;DHT22;67019;51.034;3.728;2024-02-16T08:33:20;12.60;99.90
77829;DHT22;67019;51.034;3.728;2024-02-16T08:35:48;12.60;99.90
77829;DHT22;67019;51.034;3.728;2024-02-16T08:38:17;12.70;99.90
77829;DHT22;67019;51.034;3.728;2024-02-16T08:40:44;12.90;99.90
77829;DHT22;67019;51.034;3.728;2024-02-16T08:43:13;12.80;99.90
77829;DHT22;67019;51.034;3.728;2024-02-16T08:45:40;12.80;99.90
77829;DHT22;67019;51.034;3.728;2024-02-16T08:48:08;12.90;99.90
77829;DHT22;67019;51.034;3.728;2024-02-16T08:50:37;12.90;99.90
77829;DHT22;67019;51.034;3.728;2024-02-16T08:53:04;12.80;99.90
77829;DHT22;67019;51.034;3.728;2024-02-16T08:55:32;12.80;99.90
77829;DHT22;67019;51.034;3.728;2024-02-16T08:58:00;13.00;99.90
77829;DHT22;67019;51.034;3.728;2024-02-16T09:00:27;12.80;99.90
77829;DHT22;67019;51.034;3.728;2024-02-16T09:02:55;12.60;99.90
77829;DHT22;67019;51.034;3.728;2024-02-16T09:05:24;12.70;99.90
77829;DHT22;67019;51.034;3.728;2024-02-16T09:07:52;12.60;99.90
77829;DHT22;67019;51.034;3.728;2024-02-16T09:10:19;12.60;99.90
77829;DHT22;67019;51.034;3.728;2024-02-16T09:12:47;12.50;99.90
77829;DHT22;67019;51.034;3.728;2024-02-16T09:15:15;12.50;99.90
77829;DHT22;67019;51.034;3.728;2024-02-16T09:17:42;12.50;99.90
77829;DHT22;67019;51.034;3.728;2024-02-16T09:20:11;12.40;99.90
77829;DHT22;67019;51.034;3.728;2024-02-16T09:22:40;12.30;99.90
77829;DHT22;67019;51.034;3.728;2024-02-16T09:25:08;12.30;99.90
77829;DHT22;67019;51.034;3.728;2024-02-16T09:27:36;12.20;99.90
77829;DHT22;67019;51.034;3.728;2024-02-16T09:30:06;12.20;99.90
77829;DHT22;67019;51.034;3.728;2024-02-16T09:32:33;13.60;99.90
77829;DHT22;67019;51.034;3.728;2024-02-16T09:35:03;12.10;99.90
77829;DHT22;67019;51.034;3.728;2024-02-16T09:37:30;11.90;99.90
77829;DHT22;67019;51.034;3.728;2024-02-16T09:39:58;12.10;99.90
77829;DHT22;67019;51.034;3.728;2024-02-16T09:42:25;12.00;99.90
77829;DHT22;67019;51.034;3.728;2024-02-16T09:44:54;11.90;99.90
77829;DHT22;67019;51.034;3.728;2024-02-16T09:47:22;11.90;99.90
77829;DHT22;67019;51.034;3.728;2024-02-16T09:49:52;12.00;99.90
77829;DHT22;67019;51.034;3.728;2024-02-16T09:52:20;11.70;99.90
77829;DHT22;67019;51.034;3.728;2024-02-16T09:54:48;11.80;99.90
77829;DHT22;67019;51.034;3.728;2024-02-16T09:57:19;11.80;99.90
77829;DHT22;67019;51.034;3.728;2024-02-16T09:59:46;11.80;99.90
77829;DHT22;67019;51.034;3.728;2024-02-16T10:02:14;11.70;99.90
77829;DHT22;67019;51.034;3.728;2024-02-16T10:04:43;11.80;99.90
77829;DHT22;67019;51.034;3.728;2024-02-16T10:07:11;14.50;99.90
77829;DHT22;67019;51.034;3.728;2024-02-16T10:09:40;11.80;99.90
77829;DHT22;67019;51.034;3.728;2024-02-16T10:12:07;11.80;99.90
77829;DHT22;67019;51.034;3.728;2024-02-16T10:14:35;11.70;99.90
77829;DHT22;67019;51.034;3.728;2024-02-16T10:17:04;11.70;99.90
77829;DHT22;67019;51.034;3.728;2024-02-16T10:19:33;11.70;99.90
77829;DHT22;67019;51.034;3.728;2024-02-16T10:22:08;11.60;99.90
77829;DHT22;67019;51.034;3.728;2024-02-16T10:24:36;11.70;99.90
77829;DHT22;67019;51.034;3.728;2024-02-16T10:27:06;11.70;99.90
77829;DHT22;67019;51.034;3.728;2024-02-16T10:29:35;11.70;99.90
77829;DHT22;67019;51.034;3.728;2024-02-16T10:32:06;11.90;99.90
77829;DHT22;67019;51.034;3.728;2024-02-16T10:34:35;11.60;99.90
77829;DHT22;67019;51.034;3.728;2024-02-16T10:37:04;11.60;99.90
77829;DHT22;67019;51.034;3.728;2024-02-16T10:39:32;10.00;99.90
77829;DHT22;67019;51.034;3.728;2024-02-16T10:42:02;11.60;99.90
77829;DHT22;67019;51.034;3.728;2024-02-16T10:44:30;11.70;99.90
77829;DHT22;67019;51.034;3.728;2024-02-16T10:46:59;11.70;99.90
77829;DHT22;67019;51.034;3.728;2024-02-16T10:49:27;11.50;99.90
77829;DHT22;67019;51.034;3.728;2024-02-16T10:51:56;11.30;99.90
77829;DHT22;67019;51.034;3.728;2024-02-16T10:54:26;11.60;99.90
77829;DHT22;67019;51.034;3.728;2024-02-16T10:56:54;11.60;99.90
77829;DHT22;67019;51.034;3.728;2024-02-16T11:01:59;11.60;99.90
77829;DHT22;67019;51.034;3.728;2024-02-16T11:04:20;11.70;99.90
77829;DHT22;67019;51.034;3.728;2024-02-16T11:06:55;11.80;99.90
77829;DHT22;67019;51.034;3.728;2024-02-16T11:09:28;11.80;99.90
77829;DHT22;67019;51.034;3.728;2024-02-16T11:12:06;11.80;99.90
77829;DHT22;67019;51.034;3.728;2024-02-16T11:14:36;9.40;99.90
77829;DHT22;67019;51.034;3.728;2024-02-16T11:17:11;11.80;99.90
77829;DHT22;67019;51.034;3.728;2024-02-16T11:19:43;11.70;99.90
77829;DHT22;67019;51.034;3.728;2024-02-16T11:22:19;11.50;99.90
77829;DHT22;67019;51.034;3.728;2024-02-16T11:24:53;11.60;99.90
77829;DHT22;67019;51.034;3.728;2024-02-16T11:27:21;11.60;99.90
77829;DHT22;67019;51.034;3.728;2024-02-16T11:29:49;11.20;99.90
77829;DHT22;67019;51.034;3.728;2024-02-16T11:32:19;11.40;99.90
77829;DHT22;67019;51.034;3.728;2024-02-16T11:34:46;11.60;99.90
77829;DHT22;67019;51.034;3.728;2024-02-16T11:37:14;11.60;99.90
77829;DHT22;67019;51.034;3.728;2024-02-16T11:39:43;11.70;99.90
77829;DHT22;67019;51.034;3.728;2024-02-16T11:42:13;11.80;99.90
77829;DHT22;67019;51.034;3.728;2024-02-16T11:44:52;12.00;99.90
77829;DHT22;67019;51.034;3.728;2024-02-16T11:47:24;11.80;99.90
77829;DHT22;67019;51.034;3.728;2024-02-16T11:50:06;11.80;99.90
77829;DHT22;67019;51.034;3.728;2024-02-16T11:52:35;11.90;99.90
77829;DHT22;67019;51.034;3.728;2024-02-16T11:55:04;11.80;99.90
77829;DHT22;67019;51.034;3.728;2024-02-16T11:57:35;11.90;99.90
77829;DHT22;67019;51.034;3.728;2024-02-16T12:00:04;12.10;99.90
77829;DHT22;67019;51.034;3.728;2024-02-16T12:02:37;12.10;99.90
77829;DHT22;67019;51.034;3.728;2024-02-16T12:05:04;12.10;99.90
77829;DHT22;67019;51.034;3.728;2024-02-16T12:07:32;11.80;99.90
77829;DHT22;67019;51.034;3.728;2024-02-16T12:10:03;11.90;99.90
77829;DHT22;67019;51.034;3.728;2024-02-16T12:12:33;12.00;99.90
77829;DHT22;67019;51.034;3.728;2024-02-16T12:15:01;11.90;99.90
77829;DHT22;67019;51.034;3.728;2024-02-16T12:17:30;12.10;99.90
77829;DHT22;67019;51.034;3.728;2024-02-16T12:19:58;12.10;99.90
77829;DHT22;67019;51.034;3.728;2024-02-16T12:22:27;14.50;99.90
77829;DHT22;67019;51.034;3.728;2024-02-16T12:24:54;12.20;99.90
77829;DHT22;67019;51.034;3.728;2024-02-16T12:27:22;12.50;99.90
77829;DHT22;67019;51.034;3.728;2024-02-16T12:29:50;12.80;99.90
77829;DHT22;67019;51.034;3.728;2024-02-16T12:32:17;13.00;99.90
77829;DHT22;67019;51.034;3.728;2024-02-16T12:34:47;13.00;99.90
77829;DHT22;67019;51.034;3.728;2024-02-16T12:37:15;13.30;99.90
77829;DHT22;67019;51.034;3.728;2024-02-16T12:39:44;13.10;99.90
77829;DHT22;67019;51.034;3.728;2024-02-16T12:42:13;13.00;99.90
77829;DHT22;67019;51.034;3.728;2024-02-16T12:44:43;13.20;99.90
77829;DHT22;67019;51.034;3.728;2024-02-16T12:47:10;13.20;99.90
77829;DHT22;67019;51.034;3.728;2024-02-16T12:49:38;12.80;99.90
77829;DHT22;67019;51.034;3.728;2024-02-16T12:52:06;13.00;99.90
77829;DHT22;67019;51.034;3.728;2024-02-16T12:54:33;12.70;99.90
77829;DHT22;67019;51.034;3.728;2024-02-16T12:57:02;11.30;99.90
77829;DHT22;67019;51.034;3.728;2024-02-16T12:59:30;13.00;99.90
77829;DHT22;67019;51.034;3.728;2024-02-16T13:01:58;12.90;99.90
77829;DHT22;67019;51.034;3.728;2024-02-16T13:04:27;13.10;99.90
77829;DHT22;67019;51.034;3.728;2024-02-16T13:06:57;13.20;99.90
77829;DHT22;67019;51.034;3.728;2024-02-16T13:09:24;12.70;99.90
77829;DHT22;67019;51.034;3.728;2024-02-16T13:11:52;13.50;99.90
77829;DHT22;67019;51.034;3.728;2024-02-16T13:14:21;13.30;99.90
77829;DHT22;67019;51.034;3.728;2024-02-16T13:16:49;13.50;99.90
77829;DHT22;67019;51.034;3.728;2024-02-16T13:19:16;13.50;99.90
77829;DHT22;67019;51.034;3.728;2024-02-16T13:21:44;13.60;99.90
77829;DHT22;67019;51.034;3.728;2024-02-16T13:24:21;13.70;99.90
77829;DHT22;67019;51.034;3.728;2024-02-16T13:26:48;13.80;99.90
77829;DHT22;67019;51.034;3.728;2024-02-16T13:29:16;13.10;99.90
77829;DHT22;67019;51.034;3.728;2024-02-16T13:31:43;13.20;99.90
77829;DHT22;67019;51.034;3.728;2024-02-16T13:34:12;13.30;99.90
77829;DHT22;67019;51.034;3.728;2024-02-16T13:36:41;13.00;99.90
77829;DHT22;67019;51.034;3.728;2024-02-16T13:39:08;12.90;99.90
77829;DHT22;67019;51.034;3.728;2024-02-16T13:41:38;13.10;99.90
77829;DHT22;67019;51.034;3.728;2024-02-16T13:44:05;13.30;99.90
77829;DHT22;67019;51.034;3.728;2024-02-16T13:46:33;13.40;99.90
77829;DHT22;67019;51.034;3.728;2024-02-16T13:49:01;13.30;99.90
77829;DHT22;67019;51.034;3.728;2024-02-16T13:51:28;13.70;99.90
77829;DHT22;67019;51.034;3.728;2024-02-16T13:53:56;13.50;99.90
77829;DHT22;67019;51.034;3.728;2024-02-16T13:56:23;13.70;99.90
77829;DHT22;67019;51.034;3.728;2024-02-16T13:58:51;13.80;99.90
77829;DHT22;67019;51.034;3.728;2024-02-16T14:01:19;13.80;99.90
77829;DHT22;67019;51.034;3.728;2024-02-16T14:03:49;13.60;99.90
77829;DHT22;67019;51.034;3.728;2024-02-16T14:06:17;13.30;99.90
77829;DHT22;67019;51.034;3.728;2024-02-16T14:08:46;13.30;99.90
77829;DHT22;67019;51.034;3.728;2024-02-16T14:11:15;13.30;99.90
77829;DHT22;67019;51.034;3.728;2024-02-16T14:13:43;13.50;99.90
77829;DHT22;67019;51.034;3.728;2024-02-16T14:16:10;13.40;99.90
77829;DHT22;67019;51.034;3.728;2024-02-16T14:18:38;13.30;99.90
77829;DHT22;67019;51.034;3.728;2024-02-16T14:21:06;13.40;99.90
77829;DHT22;67019;51.034;3.728;2024-02-16T14:23:33;13.80;99.90
77829;DHT22;67019;51.034;3.728;2024-02-16T14:26:02;13.90;99.90
77829;DHT22;67019;51.034;3.728;2024-02-16T14:28:31;13.50;99.90
77829;DHT22;67019;51.034;3.728;2024-02-16T14:30:58;13.50;99.90
77829;DHT22;67019;51.034;3.728;2024-02-16T14:33:26;13.60;99.90
77829;DHT22;67019;51.034;3.728;2024-02-16T14:35:53;13.70;99.90
77829;DHT22;67019;51.034;3.728;2024-02-16T14:38:21;13.60;99.90
77829;DHT22;67019;51.034;3.728;2024-02-16T14:40:48;13.70;99.90
77829;DHT22;67019;51.034;3.728;2024-02-16T14:43:16;13.90;99.90
77829;DHT22;67019;51.034;3.728;2024-02-16T14:45:44;13.70;99.90
77829;DHT22;67019;51.034;3.728;2024-02-16T14:48:11;13.60;99.90
77829;DHT22;67019;51.034;3.728;2024-02-16T14:50:39;13.30;99.90
77829;DHT22;67019;51.034;3.728;2024-02-16T14:53:07;13.20;99.90
77829;DHT22;67019;51.034;3.728;2024-02-16T14:55:35;13.50;99.90
77829;DHT22;67019;51.034;3.728;2024-02-16T14:58:03;13.30;99.90
77829;DHT22;67019;51.034;3.728;2024-02-16T15:00:30;13.50;99.90
77829;DHT22;67019;51.034;3.728;2024-02-16T15:02:58;13.50;99.90
77829;DHT22;67019;51.034;3.728;2024-02-16T15:05:25;13.50;99.90
77829;DHT22;67019;51.034;3.728;2024-02-16T15:07:53;13.50;99.90
77829;DHT22;67019;51.034;3.728;2024-02-16T15:10:23;13.90;99.90
77829;DHT22;67019;51.034;3.728;2024-02-16T15:12:50;13.60;99.90
77829;DHT22;67019;51.034;3.728;2024-02-16T15:15:18;13.40;99.90
77829;DHT22;67019;51.034;3.728;2024-02-16T15:17:45;13.70;99.90
77829;DHT22;67019;51.034;3.728;2024-02-16T15:20:14;14.00;99.90
77829;DHT22;67019;51.034;3.728;2024-02-16T15:22:42;14.10;99.90
77829;DHT22;67019;51.034;3.728;2024-02-16T15:25:10;14.10;99.90
77829;DHT22;67019;51.034;3.728;2024-02-16T15:27:38;13.80;99.90
77829;DHT22;67019;51.034;3.728;2024-02-16T15:30:06;13.70;99.90
77829;DHT22;67019;51.034;3.728;2024-02-16T15:32:34;13.70;99.90
77829;DHT22;67019;51.034;3.728;2024-02-16T15:35:02;13.40;99.90
77829;DHT22;67019;51.034;3.728;2024-02-16T15:37:29;13.30;99.90